createdAt,value
2023-04-12T00:00:51.249Z,7.72
2023-04-12T00:06:54.852Z,12.65
2023-04-12T00:12:56.863Z,6.03
2023-04-12T00:19:00.142Z,6.60
2023-04-12T00:25:02.289Z,6.18
2023-04-12T00:31:04.201Z,5.88
2023-04-12T00:37:06.050Z,7.22
2023-04-12T00:43:11.089Z,6.20
2023-04-12T00:49:13.399Z,6.43
2023-04-12T00:55:16.018Z,6.32
2023-04-12T01:01:20.086Z,8.13
2023-04-12T01:07:30.810Z,6.00
2023-04-12T01:14:26.159Z,4.50
2023-04-12T01:20:33.261Z,5.45
2023-04-12T01:26:42.257Z,10.65
2023-04-12T01:32:51.499Z,5.75
2023-04-12T01:38:54.794Z,4.50
2023-04-12T01:44:56.776Z,6.80
2023-04-12T01:51:18.893Z,7.55
2023-04-12T01:57:21.769Z,5.93
2023-04-12T02:03:24.806Z,5.65
2023-04-12T02:09:28.349Z,5.93
2023-04-12T02:15:30.454Z,7.28
2023-04-12T02:21:41.255Z,6.78
2023-04-12T02:27:43.092Z,4.25
2023-04-12T02:33:48.686Z,7.18
2023-04-12T02:39:50.438Z,7.45
2023-04-12T02:45:52.364Z,5.95
2023-04-12T02:51:55.285Z,5.03
2023-04-12T02:57:57.898Z,6.03
2023-04-12T03:04:02.279Z,6.35
2023-04-12T03:22:27.404Z,6.07
2023-04-12T03:28:29.232Z,5.63
2023-04-12T03:34:35.281Z,6.40
2023-04-12T03:40:37.081Z,5.38
2023-04-12T03:46:41.644Z,6.93
2023-04-12T03:58:45.125Z,8.07
2023-04-12T04:04:47.214Z,7.80
2023-04-12T04:10:50.311Z,6.68
2023-04-12T04:16:52.120Z,8.18
2023-04-12T04:22:54.130Z,4.75
2023-04-12T04:28:55.998Z,8.38
2023-04-12T04:35:01.011Z,6.53
2023-04-12T04:41:03.840Z,5.85
2023-04-12T04:47:06.885Z,4.78
2023-04-12T04:53:08.887Z,6.38
2023-04-12T04:59:11.723Z,6.85
2023-04-12T05:05:13.885Z,6.72
2023-04-12T05:11:15.769Z,4.90
2023-04-12T05:17:17.606Z,9.07
2023-04-12T05:23:19.415Z,9.18
2023-04-12T05:29:21.402Z,6.15
2023-04-12T05:35:23.285Z,9.50
2023-04-12T05:41:26.300Z,5.55
2023-04-12T05:47:28.165Z,6.55
2023-04-12T05:53:36.931Z,6.15
2023-04-12T05:59:39.013Z,5.63
2023-04-12T06:05:41.126Z,6.00
2023-04-12T06:11:42.954Z,3.95
2023-04-12T06:17:45.372Z,6.28
2023-04-12T06:23:49.524Z,5.97
2023-04-12T06:29:51.913Z,5.05
2023-04-12T06:35:56.868Z,4.32
2023-04-12T06:42:00.007Z,5.13
2023-04-12T06:48:04.244Z,4.82
2023-04-12T06:54:09.631Z,5.07
2023-04-12T07:00:12.372Z,6.28
2023-04-12T07:06:24.871Z,5.40
2023-04-12T07:12:28.668Z,4.65
2023-04-12T07:18:31.790Z,4.55
2023-04-12T07:24:33.934Z,2.55
2023-04-12T07:30:36.180Z,4.30
2023-04-12T07:36:38.592Z,4.00
2023-04-12T07:42:42.387Z,7.10
2023-04-12T07:48:44.816Z,3.27
2023-04-12T07:54:46.708Z,3.85
2023-04-12T08:00:49.692Z,4.82
2023-04-12T08:06:52.306Z,3.80
2023-04-12T08:12:54.303Z,2.85
2023-04-12T08:18:57.058Z,3.83
2023-04-12T08:25:03.140Z,3.28
2023-04-12T08:31:05.525Z,4.03
2023-04-12T08:37:07.926Z,4.30
2023-04-12T08:43:12.237Z,6.63
2023-04-12T08:49:16.390Z,3.78
2023-04-12T08:55:18.412Z,3.42
2023-04-12T09:01:22.006Z,4.32
2023-04-12T09:07:27.801Z,5.55
2023-04-12T09:13:37.102Z,1.98
2023-04-12T09:19:38.879Z,2.85
2023-04-12T09:25:45.734Z,3.45
2023-04-12T09:31:56.792Z,3.55
2023-04-12T09:38:06.795Z,5.03
2023-04-12T09:44:08.806Z,2.85
2023-04-12T09:50:33.445Z,3.00
2023-04-12T09:56:37.886Z,2.80
2023-04-12T10:02:44.864Z,3.28
2023-04-12T10:08:49.432Z,3.47
2023-04-12T10:14:53.192Z,2.60
2023-04-12T10:20:55.847Z,2.80
2023-04-12T10:27:02.661Z,4.90
2023-04-12T10:33:10.199Z,1.42
2023-04-12T10:39:12.311Z,2.20
2023-04-12T10:45:23.369Z,3.75
2023-04-12T10:51:26.845Z,2.83
2023-04-12T10:57:44.016Z,1.73
2023-04-12T11:04:05.849Z,0.82
2023-04-12T11:10:16.528Z,1.35
2023-04-12T11:16:18.538Z,2.15
2023-04-12T11:22:22.289Z,1.70
2023-04-12T11:28:29.861Z,1.30
2023-04-12T11:34:34.338Z,2.45
2023-04-12T11:40:42.555Z,1.17
2023-04-12T11:46:44.740Z,1.67
2023-04-12T11:52:46.657Z,1.73
2023-04-12T11:58:50.400Z,1.60
2023-04-12T12:04:53.422Z,1.90
2023-04-12T12:11:06.548Z,1.30
2023-04-12T12:17:11.988Z,1.05
2023-04-12T12:29:35.522Z,1.50
2023-04-12T12:35:37.760Z,1.30
2023-04-12T12:41:41.183Z,2.90
2023-04-12T12:47:56.247Z,1.00
2023-04-12T12:53:58.437Z,1.50
2023-04-12T13:00:00.587Z,1.65
2023-04-12T13:06:03.836Z,1.30
2023-04-12T13:12:05.854Z,2.88
2023-04-12T13:18:07.848Z,1.27
2023-04-12T13:24:10.070Z,1.75
2023-04-12T13:30:12.802Z,1.60
2023-04-12T13:36:14.617Z,1.08
2023-04-12T13:42:16.591Z,1.33
2023-04-12T13:48:20.497Z,2.30
2023-04-12T13:54:22.424Z,2.28
2023-04-12T14:00:24.509Z,2.75
2023-04-12T14:06:27.255Z,1.98
2023-04-12T14:12:29.106Z,2.70
2023-04-12T14:18:31.510Z,2.40
2023-04-12T14:24:33.488Z,2.50
2023-04-12T14:30:35.390Z,3.85
2023-04-12T14:36:37.614Z,2.67
2023-04-12T14:42:39.729Z,2.53
2023-04-12T14:48:41.657Z,2.92
2023-04-12T14:54:43.625Z,5.20
2023-04-12T15:00:46.076Z,3.78
2023-04-12T15:06:48.247Z,5.38
2023-04-12T15:12:50.164Z,4.13
2023-04-12T15:18:52.297Z,3.90
2023-04-12T15:24:56.925Z,3.85
2023-04-12T15:30:59.559Z,4.00
2023-04-12T15:37:01.638Z,3.55
2023-04-12T15:43:03.812Z,4.30
2023-04-12T15:49:06.554Z,3.92
2023-04-12T15:55:11.603Z,4.93
2023-04-12T16:01:13.550Z,4.38
2023-04-12T16:07:15.603Z,6.10
2023-04-12T16:13:18.697Z,5.50
2023-04-12T16:19:20.678Z,5.18
2023-04-12T16:25:24.473Z,4.35
2023-04-12T16:31:26.549Z,5.95
2023-04-12T16:37:29.959Z,5.85
2023-04-12T16:43:31.908Z,5.97
2023-04-12T16:49:33.706Z,3.60
2023-04-12T16:55:35.744Z,2.30
2023-04-12T17:01:37.554Z,5.18
2023-04-12T17:07:39.766Z,5.45
2023-04-12T17:13:42.283Z,7.85
2023-04-12T17:19:44.348Z,5.43
2023-04-12T17:25:46.942Z,7.03
2023-04-12T17:31:50.697Z,5.28
2023-04-12T17:37:55.001Z,4.47
2023-04-12T17:43:57.164Z,6.30
2023-04-12T17:49:59.293Z,8.45
2023-04-12T17:56:01.472Z,3.83
2023-04-12T18:02:03.804Z,5.22
2023-04-12T18:08:06.201Z,8.23
2023-04-12T18:14:08.919Z,7.07
2023-04-12T18:20:18.000Z,9.43
2023-04-12T18:26:19.979Z,6.25
2023-04-12T18:32:22.011Z,8.90
2023-04-12T18:38:23.947Z,8.00
2023-04-12T18:44:26.241Z,8.70
2023-04-12T18:50:28.459Z,6.90
2023-04-12T18:56:30.685Z,8.30
2023-04-12T19:02:34.389Z,12.85
2023-04-12T19:08:36.787Z,8.15
2023-04-12T19:14:38.736Z,12.38
2023-04-12T19:20:40.517Z,10.32
2023-04-12T19:26:47.318Z,10.90
2023-04-12T19:32:49.713Z,10.48
2023-04-12T19:38:52.188Z,12.20
2023-04-12T19:44:54.023Z,10.25
2023-04-12T19:50:56.684Z,10.13
2023-04-12T19:56:58.613Z,11.82
2023-04-12T20:03:00.694Z,11.75
2023-04-12T20:09:02.556Z,12.88
2023-04-12T20:15:08.953Z,16.10
2023-04-12T20:21:10.839Z,11.25
2023-04-12T20:27:16.794Z,11.95
2023-04-12T20:33:19.972Z,10.85
2023-04-12T20:39:24.655Z,12.38
2023-04-12T20:51:29.947Z,13.68
2023-04-12T20:57:31.770Z,13.13
2023-04-12T21:03:36.008Z,10.80
2023-04-12T21:09:38.615Z,16.08
2023-04-12T21:15:41.826Z,11.65
2023-04-12T21:21:43.837Z,13.80
2023-04-12T21:27:47.221Z,12.40
2023-04-12T21:33:50.225Z,8.90
2023-04-12T21:39:52.834Z,8.50
2023-04-12T21:45:54.820Z,13.63
2023-04-12T21:51:57.096Z,7.82
2023-04-12T21:57:58.979Z,11.98
2023-04-12T22:04:00.978Z,9.02
2023-04-12T22:10:03.306Z,6.43
2023-04-12T22:16:06.161Z,10.07
2023-04-12T22:22:09.402Z,8.95
2023-04-12T22:28:12.244Z,9.15
2023-04-12T22:34:14.270Z,8.70
2023-04-12T22:40:16.180Z,10.27
2023-04-12T22:46:18.792Z,14.73
2023-04-12T22:52:24.325Z,14.73
2023-04-12T22:58:27.166Z,14.15
2023-04-12T23:04:29.036Z,15.32
2023-04-12T23:10:33.732Z,14.60
2023-04-12T23:16:42.440Z,15.35
2023-04-12T23:22:58.372Z,18.17
2023-04-12T23:29:03.583Z,14.82
2023-04-12T23:35:05.943Z,12.80
2023-04-12T23:41:10.136Z,10.88
2023-04-12T23:47:12.203Z,12.52
2023-04-12T23:53:14.936Z,8.18
2023-04-12T23:59:16.824Z,11.52
